createdAt,value
2018-11-20T00:01:15.717Z,30.57
2018-11-20T00:04:13.434Z,28.00
2018-11-20T00:07:03.880Z,26.07
2018-11-20T00:09:54.992Z,29.30
2018-11-20T00:12:55.425Z,27.70
2018-11-20T00:16:02.104Z,29.90
2018-11-20T00:18:53.620Z,29.73
2018-11-20T00:21:43.608Z,29.03
2018-11-20T00:24:35.438Z,28.43
2018-11-20T00:27:26.035Z,27.93
2018-11-20T00:30:16.740Z,28.40
2018-11-20T00:33:14.102Z,31.57
2018-11-20T00:35:55.995Z,27.97
2018-11-20T00:38:52.857Z,27.67
2018-11-20T00:41:59.827Z,25.37
2018-11-20T00:44:57.905Z,31.50
2018-11-20T00:47:46.216Z,24.57
2018-11-20T00:50:29.794Z,24.47
2018-11-20T00:53:18.645Z,26.23
2018-11-20T00:57:11.300Z,27.73
2018-11-20T01:00:11.629Z,24.17
2018-11-20T01:02:58.095Z,26.03
2018-11-20T01:05:39.283Z,28.40
2018-11-20T01:08:43.601Z,30.20
2018-11-20T01:11:33.005Z,31.40
2018-11-20T01:14:25.067Z,28.87
2018-11-20T01:17:23.116Z,25.97
2018-11-20T01:20:13.718Z,26.30
2018-11-20T01:23:00.738Z,27.03
2018-11-20T01:25:50.822Z,24.87
2018-11-20T01:28:40.912Z,29.50
2018-11-20T01:31:32.510Z,25.40
2018-11-20T01:34:22.215Z,25.43
2018-11-20T01:37:22.956Z,28.30
2018-11-20T01:40:14.342Z,28.73
2018-11-20T01:43:08.439Z,24.17
2018-11-20T01:45:58.821Z,23.87
2018-11-20T01:48:50.891Z,24.40
2018-11-20T01:51:36.670Z,29.17
2018-11-20T01:54:40.177Z,26.90
2018-11-20T01:57:30.471Z,31.27
2018-11-20T02:00:22.300Z,28.30
2018-11-20T02:03:11.874Z,27.40
2018-11-20T02:06:03.397Z,27.17
2018-11-20T02:09:13.864Z,25.37
2018-11-20T02:12:08.226Z,23.70
2018-11-20T02:15:00.089Z,29.80
2018-11-20T02:18:09.013Z,23.50
2018-11-20T02:20:58.589Z,30.30
2018-11-20T02:23:52.773Z,29.40
2018-11-20T02:26:36.688Z,25.10
2018-11-20T02:29:43.294Z,28.00
2018-11-20T02:32:35.635Z,26.60
2018-11-20T02:35:20.500Z,29.43
2018-11-20T02:38:11.408Z,25.77
2018-11-20T02:41:09.036Z,30.37
2018-11-20T02:44:00.968Z,27.27
2018-11-20T02:46:51.310Z,24.30
2018-11-20T02:49:41.284Z,27.60
2018-11-20T02:52:28.473Z,26.73
2018-11-20T02:55:18.187Z,31.10
2018-11-20T02:58:21.895Z,26.63
2018-11-20T03:01:04.466Z,28.07
2018-11-20T03:03:54.420Z,28.30
2018-11-20T03:06:44.275Z,26.67
2018-11-20T03:09:24.293Z,26.37
2018-11-20T03:12:14.521Z,24.33
2018-11-20T03:15:13.313Z,25.93
2018-11-20T03:18:20.092Z,27.27
2018-11-20T03:21:09.667Z,27.33
2018-11-20T03:23:59.551Z,24.00
2018-11-20T03:26:47.715Z,27.97
2018-11-20T03:30:35.751Z,30.63
2018-11-20T03:33:18.663Z,27.20
2018-11-20T03:36:08.596Z,26.07
2018-11-20T03:38:59.354Z,30.17
2018-11-20T03:41:52.886Z,32.97
2018-11-20T03:44:56.657Z,27.87
2018-11-20T03:47:48.174Z,26.07
2018-11-20T03:50:37.933Z,26.23
2018-11-20T03:53:27.814Z,29.90
2018-11-20T03:56:27.943Z,29.27
2018-11-20T03:59:18.135Z,28.03
2018-11-20T04:02:12.464Z,27.27
2018-11-20T04:05:03.602Z,31.40
2018-11-20T04:07:57.406Z,29.67
2018-11-20T04:10:52.310Z,26.90
2018-11-20T04:13:46.725Z,30.57
2018-11-20T04:16:49.802Z,31.57
2018-11-20T04:19:40.084Z,32.80
2018-11-20T04:22:34.758Z,28.67
2018-11-20T04:25:38.593Z,29.53
2018-11-20T04:28:32.777Z,26.63
2018-11-20T04:32:09.845Z,33.40
2018-11-20T04:35:01.493Z,29.93
2018-11-20T04:37:56.413Z,29.43
2018-11-20T04:40:50.847Z,28.60
2018-11-20T04:43:47.835Z,29.73
2018-11-20T04:46:42.234Z,29.40
2018-11-20T04:49:33.031Z,35.43
2018-11-20T04:52:15.968Z,32.27
2018-11-20T04:55:13.411Z,35.07
2018-11-20T04:58:04.116Z,29.03
2018-11-20T05:01:01.544Z,33.00
2018-11-20T05:03:53.254Z,34.17
2018-11-20T05:06:51.496Z,26.97
2018-11-20T05:09:45.985Z,30.60
2018-11-20T05:12:35.753Z,29.27
2018-11-20T05:15:25.638Z,28.00
2018-11-20T05:18:32.011Z,29.90
2018-11-20T05:21:37.763Z,27.17
2018-11-20T05:24:38.099Z,30.67
2018-11-20T05:27:27.978Z,27.43
2018-11-20T05:30:19.906Z,30.07
2018-11-20T05:33:11.432Z,31.80
2018-11-20T05:36:01.724Z,26.67
2018-11-20T05:38:52.152Z,33.40
2018-11-20T05:41:42.310Z,27.83
2018-11-20T05:44:30.555Z,29.50
2018-11-20T05:47:21.464Z,31.37
2018-11-20T05:50:18.673Z,29.43
2018-11-20T05:53:00.585Z,30.23
2018-11-20T05:55:57.258Z,27.83
2018-11-20T05:58:47.724Z,26.83
2018-11-20T06:01:38.462Z,24.47
2018-11-20T06:04:38.868Z,27.67
2018-11-20T06:07:45.366Z,31.83
2018-11-20T06:10:52.453Z,26.80
2018-11-20T06:13:49.911Z,29.10
2018-11-20T06:16:34.030Z,27.33
2018-11-20T06:19:34.695Z,27.77
2018-11-20T06:22:25.094Z,27.17
2018-11-20T06:25:18.971Z,27.60
2018-11-20T06:28:13.154Z,24.73
2018-11-20T06:31:20.450Z,24.20
2018-11-20T06:34:08.687Z,26.27
2018-11-20T06:36:59.779Z,27.47
2018-11-20T06:39:50.509Z,23.10
2018-11-20T06:42:53.396Z,24.83
2018-11-20T06:45:48.505Z,24.30
2018-11-20T06:48:46.476Z,22.83
2018-11-20T06:51:46.757Z,24.30
2018-11-20T06:54:39.317Z,21.73
2018-11-20T06:57:25.461Z,22.80
2018-11-20T07:00:28.128Z,18.90
2018-11-20T07:03:21.906Z,23.33
2018-11-20T07:06:13.630Z,23.37
2018-11-20T07:09:03.413Z,21.07
2018-11-20T07:11:53.807Z,21.53
2018-11-20T07:14:48.400Z,21.30
2018-11-20T07:17:51.188Z,18.73
2018-11-20T07:20:41.278Z,21.60
2018-11-20T07:23:51.233Z,18.97
2018-11-20T07:26:42.344Z,19.90
2018-11-20T07:29:51.671Z,23.57
2018-11-20T07:32:43.772Z,19.43
2018-11-20T07:35:38.256Z,21.30
2018-11-20T07:38:28.257Z,17.97
2018-11-20T07:41:13.551Z,19.73
2018-11-20T07:44:20.660Z,21.37
2018-11-20T07:47:11.056Z,18.60
2018-11-20T07:50:01.458Z,20.53
2018-11-20T07:52:56.153Z,20.13
2018-11-20T07:56:01.881Z,21.90
2018-11-20T07:58:51.483Z,16.63
2018-11-20T08:01:48.446Z,16.93
2018-11-20T08:04:38.619Z,16.30
2018-11-20T08:07:32.498Z,16.43
2018-11-20T08:10:26.794Z,18.00
2018-11-20T08:13:34.079Z,22.53
2018-11-20T08:16:23.860Z,20.27
2018-11-20T08:19:27.771Z,19.30
2018-11-20T08:22:17.654Z,14.07
2018-11-20T08:25:09.201Z,20.20
2018-11-20T08:28:00.394Z,19.83
2018-11-20T08:30:51.942Z,18.87
2018-11-20T08:33:43.083Z,22.20
2018-11-20T08:36:32.914Z,20.57
2018-11-20T08:39:32.318Z,17.73
2018-11-20T08:42:39.098Z,18.87
2018-11-20T08:45:28.983Z,24.30
2018-11-20T08:48:29.359Z,18.27
2018-11-20T08:51:19.811Z,19.90
2018-11-20T08:54:16.247Z,21.67
2018-11-20T08:57:23.028Z,19.40
2018-11-20T09:00:24.072Z,16.73
2018-11-20T09:03:13.702Z,17.50
2018-11-20T09:05:58.208Z,18.13
2018-11-20T09:08:49.219Z,17.33
2018-11-20T09:11:52.724Z,21.30
2018-11-20T09:14:50.181Z,17.23
2018-11-20T09:17:48.624Z,17.90
2018-11-20T09:20:40.086Z,17.93
2018-11-20T09:23:34.089Z,19.27
2018-11-20T09:26:43.712Z,13.97
2018-11-20T09:29:50.801Z,16.50
2018-11-20T09:32:53.842Z,17.30
2018-11-20T09:35:51.452Z,13.17
2018-11-20T09:38:58.033Z,16.67
2018-11-20T09:41:48.429Z,14.53
2018-11-20T09:44:40.434Z,15.73
2018-11-20T09:47:49.904Z,11.60
2018-11-20T09:50:43.961Z,12.53
2018-11-20T09:53:34.384Z,11.50
2018-11-20T09:56:43.911Z,11.40
2018-11-20T09:59:41.482Z,11.53
2018-11-20T10:02:30.656Z,9.57
2018-11-20T10:05:31.093Z,11.37
2018-11-20T10:08:11.310Z,10.67
2018-11-20T10:11:08.402Z,10.00
2018-11-20T10:14:05.783Z,11.47
2018-11-20T10:16:57.994Z,9.20
2018-11-20T10:19:59.062Z,7.90
2018-11-20T10:22:59.687Z,9.20
2018-11-20T10:26:02.788Z,8.77
2018-11-20T10:28:57.236Z,9.40
2018-11-20T10:31:47.146Z,9.27
2018-11-20T10:34:34.028Z,10.67
2018-11-20T10:37:28.043Z,9.53
2018-11-20T10:40:18.492Z,8.00
2018-11-20T10:43:12.825Z,9.83
2018-11-20T10:46:22.891Z,10.13
2018-11-20T10:49:13.997Z,9.93
2018-11-20T10:51:58.110Z,9.43
2018-11-20T10:54:51.821Z,8.97
2018-11-20T10:57:42.725Z,10.80
2018-11-20T11:00:32.505Z,11.33
2018-11-20T11:03:22.285Z,11.10
2018-11-20T11:06:17.162Z,10.60
2018-11-20T11:09:24.074Z,11.20
2018-11-20T11:12:22.597Z,11.33
2018-11-20T11:15:08.448Z,10.50
2018-11-20T11:17:58.125Z,10.13
2018-11-20T11:21:04.973Z,10.03
2018-11-20T11:24:02.471Z,10.27
2018-11-20T11:27:00.037Z,11.37
2018-11-20T11:29:49.818Z,11.23
2018-11-20T11:32:44.309Z,10.03
2018-11-20T11:35:39.027Z,10.37
2018-11-20T11:38:30.834Z,11.23
2018-11-20T11:41:20.512Z,11.47
2018-11-20T11:44:17.888Z,10.37
2018-11-20T11:47:08.267Z,11.60
2018-11-20T11:49:58.560Z,11.37
2018-11-20T11:52:49.262Z,10.87
2018-11-20T11:55:39.248Z,11.83
2018-11-20T11:58:36.486Z,10.50
2018-11-20T12:04:22.416Z,10.17
2018-11-20T12:07:08.579Z,11.53
2018-11-20T12:10:11.269Z,10.27
2018-11-20T12:13:05.901Z,11.20
2018-11-20T12:15:59.863Z,9.97
2018-11-20T12:18:50.163Z,8.73
2018-11-20T12:21:35.849Z,11.13
2018-11-20T12:24:27.316Z,9.47
2018-11-20T12:27:17.162Z,11.43
2018-11-20T12:30:17.584Z,8.63
2018-11-20T12:33:12.194Z,10.03
2018-11-20T12:36:05.908Z,10.13
2018-11-20T12:38:57.045Z,12.97
2018-11-20T12:41:49.203Z,9.10
2018-11-20T12:44:41.238Z,11.43
2018-11-20T12:47:30.366Z,11.60
2018-11-20T12:50:28.088Z,11.50
2018-11-20T12:53:25.044Z,11.10
2018-11-20T12:56:31.477Z,11.27
2018-11-20T12:59:23.288Z,11.87
2018-11-20T13:02:21.056Z,10.50
2018-11-20T13:05:11.181Z,12.00
2018-11-20T13:08:02.905Z,11.47
2018-11-20T13:10:53.099Z,13.43
2018-11-20T13:13:44.109Z,15.73
2018-11-20T13:16:34.913Z,15.73
2018-11-20T13:19:27.427Z,13.67
2018-11-20T13:22:26.969Z,14.47
2018-11-20T13:25:30.983Z,16.23
2018-11-20T13:28:25.352Z,12.57
2018-11-20T13:31:25.908Z,12.33
2018-11-20T13:34:29.412Z,12.93
2018-11-20T13:37:19.811Z,13.00
2018-11-20T13:40:09.794Z,12.17
2018-11-20T13:42:59.170Z,15.83
2018-11-20T13:49:21.735Z,13.60
2018-11-20T13:52:04.412Z,13.63
2018-11-20T13:55:05.088Z,13.27
2018-11-20T13:57:55.377Z,14.10
2018-11-20T14:00:55.573Z,16.10
2018-11-20T14:03:43.148Z,13.53
2018-11-20T14:06:38.058Z,11.40
2018-11-20T14:09:33.429Z,13.87
2018-11-20T14:12:28.148Z,13.23
2018-11-20T14:15:24.992Z,14.43
2018-11-20T14:18:16.821Z,14.10
2018-11-20T14:21:06.912Z,14.20
2018-11-20T14:24:02.240Z,12.73
2018-11-20T14:26:53.743Z,15.13
2018-11-20T14:29:43.628Z,13.33
2018-11-20T14:32:47.137Z,15.30
2018-11-20T14:35:41.731Z,12.03
2018-11-20T14:38:41.879Z,14.67
2018-11-20T14:41:30.016Z,15.17
2018-11-20T14:44:10.421Z,11.73
2018-11-20T14:47:09.655Z,11.20
2018-11-20T14:50:16.229Z,11.73
2018-11-20T14:53:08.469Z,14.73
2018-11-20T14:56:05.504Z,16.30
2018-11-20T14:58:51.989Z,11.83
2018-11-20T15:01:35.049Z,12.97
2018-11-20T15:04:26.672Z,13.97
2018-11-20T15:07:21.724Z,14.83
2018-11-20T15:10:21.701Z,12.07
2018-11-20T15:13:22.560Z,12.70
2018-11-20T15:16:09.252Z,13.50
2018-11-20T15:19:19.011Z,13.63
2018-11-20T15:22:09.291Z,13.57
2018-11-20T15:25:00.405Z,14.10
2018-11-20T15:27:46.877Z,13.73
2018-11-20T15:30:53.076Z,14.00
2018-11-20T15:33:41.728Z,14.03
2018-11-20T15:36:31.714Z,12.27
2018-11-20T15:39:22.112Z,14.23
2018-11-20T15:42:16.671Z,14.60
2018-11-20T15:45:20.330Z,12.53
2018-11-20T15:48:20.845Z,12.97
2018-11-20T15:51:24.564Z,11.10
2018-11-20T15:54:08.907Z,12.67
2018-11-20T15:56:59.609Z,14.13
2018-11-20T15:59:55.903Z,12.60
2018-11-20T16:02:49.819Z,14.17
2018-11-20T16:05:40.115Z,14.70
2018-11-20T16:08:43.410Z,17.17
2018-11-20T16:11:27.432Z,14.20
2018-11-20T16:14:21.645Z,12.97
2018-11-20T16:17:17.346Z,18.93
2018-11-20T16:20:10.832Z,15.47
2018-11-20T16:23:02.835Z,12.53
2018-11-20T16:25:53.437Z,13.17
2018-11-20T16:28:50.790Z,15.87
2018-11-20T16:31:40.404Z,15.37
2018-11-20T16:34:31.485Z,15.40
2018-11-20T16:37:21.194Z,14.43
2018-11-20T16:40:10.877Z,17.50
2018-11-20T16:43:23.847Z,15.07
2018-11-20T16:46:20.858Z,14.23
2018-11-20T16:49:18.362Z,14.70
2018-11-20T16:52:03.382Z,15.13
2018-11-20T16:55:03.712Z,14.77
2018-11-20T16:58:38.344Z,15.63
2018-11-20T17:01:27.306Z,13.60
2018-11-20T17:04:16.574Z,13.47
2018-11-20T17:07:05.744Z,13.80
2018-11-20T17:10:02.283Z,14.57
2018-11-20T17:12:51.242Z,13.17
2018-11-20T17:15:43.178Z,16.00
2018-11-20T17:18:32.241Z,14.63
2018-11-20T17:21:21.919Z,12.73
2018-11-20T17:24:15.092Z,10.47
2018-11-20T17:27:13.979Z,14.80
2018-11-20T17:30:13.175Z,16.77
2018-11-20T17:33:03.878Z,15.67
2018-11-20T17:36:05.516Z,12.53
2018-11-20T17:38:50.176Z,13.63
2018-11-20T17:41:43.391Z,14.90
2018-11-20T17:44:53.440Z,14.47
2018-11-20T17:47:45.046Z,17.73
2018-11-20T17:50:41.171Z,13.00
2018-11-20T17:53:33.307Z,18.50
2018-11-20T17:56:30.030Z,16.20
2018-11-20T17:59:33.762Z,12.93
2018-11-20T18:02:44.227Z,16.80
2018-11-20T18:05:52.625Z,17.03
2018-11-20T18:09:00.452Z,18.57
2018-11-20T18:12:06.338Z,18.30
2018-11-20T18:14:55.170Z,18.93
2018-11-20T18:17:47.860Z,14.57
2018-11-20T18:20:35.652Z,21.80
2018-11-20T18:23:23.492Z,20.17
2018-11-20T18:26:26.117Z,21.63
2018-11-20T18:29:28.613Z,20.87
2018-11-20T18:32:17.920Z,14.27
2018-11-20T18:35:03.085Z,21.87
2018-11-20T18:38:05.425Z,19.47
2018-11-20T18:40:55.047Z,18.07
2018-11-20T18:43:48.286Z,19.63
2018-11-20T18:46:47.513Z,18.40
2018-11-20T18:49:47.108Z,17.47
2018-11-20T18:52:34.960Z,14.83
2018-11-20T18:55:22.464Z,20.10
2018-11-20T18:58:15.853Z,18.10
2018-11-20T19:01:21.407Z,21.53
2018-11-20T19:04:23.986Z,20.43
2018-11-20T19:07:17.349Z,18.10
2018-11-20T19:10:10.636Z,15.63
2018-11-20T19:12:59.578Z,16.50
2018-11-20T19:15:49.973Z,17.87
2018-11-20T19:18:28.459Z,19.47
2018-11-20T19:21:20.901Z,17.50
2018-11-20T19:24:11.740Z,18.67
2018-11-20T19:27:07.623Z,19.23
2018-11-20T19:29:56.830Z,17.17
2018-11-20T19:32:46.202Z,13.57
2018-11-20T19:35:37.494Z,18.20
2018-11-20T19:38:24.331Z,16.13
2018-11-20T19:41:13.192Z,21.90
2018-11-20T19:44:02.154Z,20.67
2018-11-20T19:46:55.416Z,18.57
2018-11-20T19:49:43.969Z,18.03
2018-11-20T19:52:49.315Z,18.40
2018-11-20T19:55:44.424Z,14.37
2018-11-20T19:58:33.864Z,17.00
2018-11-20T20:01:42.725Z,18.60
2018-11-20T20:04:33.218Z,18.90
2018-11-20T20:07:22.494Z,17.50
2018-11-20T20:10:17.656Z,15.77
2018-11-20T20:12:55.911Z,16.70
2018-11-20T20:15:44.874Z,16.67
2018-11-20T20:18:34.733Z,18.07
2018-11-20T20:21:23.821Z,17.23
2018-11-20T20:24:23.536Z,17.90
2018-11-20T20:27:12.597Z,17.17
2018-11-20T20:30:01.461Z,21.57
2018-11-20T20:32:50.521Z,16.23
2018-11-20T20:35:56.275Z,19.03
2018-11-20T20:38:45.444Z,17.33
2018-11-20T20:41:41.984Z,16.87
2018-11-20T20:44:30.845Z,18.27
2018-11-20T20:47:27.281Z,19.70
2018-11-20T20:50:32.524Z,15.23
2018-11-20T20:53:25.724Z,18.77
2018-11-20T20:56:14.956Z,17.33
2018-11-20T20:58:57.160Z,18.23
2018-11-20T21:01:41.897Z,18.73
2018-11-20T21:04:33.211Z,14.63
2018-11-20T21:07:22.304Z,18.03
2018-11-20T21:10:31.132Z,16.27
2018-11-20T21:13:19.685Z,17.27
2018-11-20T21:16:00.482Z,18.70
2018-11-20T21:18:50.426Z,15.30
2018-11-20T21:21:38.174Z,17.40
2018-11-20T21:24:20.041Z,16.30
2018-11-20T21:27:22.678Z,18.07
2018-11-20T21:30:09.229Z,16.57
2018-11-20T21:33:14.913Z,16.33
2018-11-20T21:36:11.018Z,17.97
2018-11-20T21:39:00.210Z,11.77
2018-11-20T21:41:48.937Z,13.23
2018-11-20T21:44:42.124Z,12.20
2018-11-20T21:47:30.783Z,17.83
2018-11-20T21:50:30.084Z,13.77
2018-11-20T21:53:29.079Z,16.07
2018-11-20T21:56:25.318Z,14.30
2018-11-20T21:59:06.870Z,12.93
2018-11-20T22:02:00.831Z,16.00
2018-11-20T22:04:50.462Z,14.10
2018-11-20T22:07:43.275Z,16.47
2018-11-20T22:10:39.569Z,13.47
2018-11-20T22:13:28.408Z,14.30
2018-11-20T22:16:16.856Z,11.63
2018-11-20T22:19:21.998Z,15.73
2018-11-20T22:22:30.927Z,14.50
2018-11-20T22:25:25.113Z,17.40
2018-11-20T22:28:13.874Z,17.57
2018-11-20T22:31:12.868Z,17.33
2018-11-20T22:34:01.318Z,15.77
2018-11-20T22:36:55.091Z,14.00
2018-11-20T22:39:46.872Z,17.23
2018-11-20T22:42:36.910Z,16.00
2018-11-20T22:45:45.850Z,18.30
2018-11-20T22:48:31.425Z,15.40
2018-11-20T22:51:27.756Z,20.50
2018-11-20T22:54:29.931Z,17.10
2018-11-20T22:57:06.267Z,16.33
2018-11-20T22:59:55.362Z,15.03
2018-11-20T23:02:49.036Z,14.17
2018-11-20T23:05:48.772Z,17.57
2018-11-20T23:08:19.798Z,19.20
2018-11-20T23:10:51.365Z,15.87
2018-11-20T23:13:22.831Z,16.20
2018-11-20T23:15:54.178Z,17.50
2018-11-20T23:18:25.717Z,14.53
2018-11-20T23:20:57.091Z,11.87
2018-11-20T23:23:28.614Z,13.40
2018-11-20T23:26:00.401Z,14.27
2018-11-20T23:28:32.581Z,14.47
2018-11-20T23:31:04.003Z,16.33
2018-11-20T23:33:35.768Z,10.57
2018-11-20T23:36:07.364Z,14.97
2018-11-20T23:38:39.015Z,14.40
2018-11-20T23:41:10.438Z,16.87
2018-11-20T23:43:41.450Z,16.73
2018-11-20T23:46:13.319Z,16.57
2018-11-20T23:48:45.020Z,13.13
2018-11-20T23:51:16.767Z,16.17
2018-11-20T23:53:48.618Z,11.13
2018-11-20T23:56:19.646Z,15.80
2018-11-20T23:58:51.334Z,18.30
